Time;durP1;ratioP1;P1;durP2;ratioP2;P2;SDS_P1;SDS_P2;PMS_P1;PMS_P2;Temp;Humidity;BMP_temperature;BMP_pressure;BME280_temperature;BME280_humidity;BME280_pressure;Samples;Min_cycle;Max_cycle;Signal;HPM_P1;HPM_P2
2022/10/24 00:01:10;;;;;;;;;1.75;1.00;;;;;22.70;49.43;99811.59;5061673;28;45614;-45
2022/10/24 00:03:36;;;;;;;;;1.50;1.50;;;;;22.69;49.14;99817.88;5062451;28;46435;-44
2022/10/24 00:06:01;;;;;;;;;5.25;2.00;;;;;22.68;50.00;99826.78;5067539;28;45234;-44
2022/10/24 00:08:26;;;;;;;;;2.00;2.00;;;;;22.69;50.07;99826.69;5062607;28;45892;-47
2022/10/24 00:10:52;;;;;;;;;3.00;3.00;;;;;22.69;49.45;99826.69;5049023;28;66346;-43
2022/10/24 00:13:18;;;;;;;;;3.00;1.75;;;;;22.70;49.95;99822.22;5062498;28;45882;-44
2022/10/24 00:15:44;;;;;;;;;3.00;3.00;;;;;22.70;49.91;99817.78;5062652;28;45281;-43
2022/10/24 00:18:10;;;;;;;;;2.75;2.75;;;;;22.69;49.51;99816.06;5044361;28;45441;-44
2022/10/24 00:20:37;;;;;;;;;2.50;2.00;;;;;22.71;49.71;99814.16;5070030;28;54672;-47
2022/10/24 00:23:02;;;;;;;;;2.00;2.00;;;;;22.70;49.45;99811.59;5066303;28;45995;-44
2022/10/24 00:25:28;;;;;;;;;2.50;2.00;;;;;22.70;49.86;99806.28;5061239;28;45236;-46
2022/10/24 00:27:53;;;;;;;;;3.25;2.50;;;;;22.68;49.93;99809.03;5056906;28;48857;-44
2022/10/24 00:30:18;;;;;;;;;3.00;1.50;;;;;22.68;49.53;99813.50;5061909;28;60794;-44
2022/10/24 00:32:44;;;;;;;;;2.00;1.00;;;;;22.69;49.53;99817.88;5044407;28;49950;-46
2022/10/24 00:35:10;;;;;;;;;2.25;2.25;;;;;22.69;49.88;99815.19;5061558;28;59418;-43
2022/10/24 00:37:35;;;;;;;;;1.75;1.50;;;;;22.67;49.99;99811.75;5061476;28;64814;-44
2022/10/24 00:40:01;;;;;;;;;1.00;1.00;;;;;22.65;49.80;99824.28;5061977;28;52646;-43
2022/10/24 00:42:26;;;;;;;;;2.25;2.00;;;;;22.65;49.87;99817.16;5062034;28;45247;-47
2022/10/24 00:44:51;;;;;;;;;3.75;1.00;;;;;22.64;49.71;99817.25;5065447;28;55650;-46
2022/10/24 00:47:24;;;;;;;;;2.50;2.00;;;;;22.64;49.89;99822.56;5061442;28;54081;-44
2022/10/24 00:49:59;;;;;;;;;2.00;1.00;;;;;22.62;49.75;99817.34;5061941;28;45243;-46
2022/10/24 00:52:30;;;;;;;;;1.50;0.00;;;;;22.62;49.59;99814.69;5074055;28;46190;-43
2022/10/24 00:54:55;;;;;;;;;0.50;0.50;;;;;22.62;50.11;99824.47;5035940;28;45397;-46
2022/10/24 00:57:25;;;;;;;;;1.75;1.75;;;;;22.62;49.92;99813.81;5061977;28;45403;-45
2022/10/24 00:59:53;;;;;;;;;4.25;1.50;;;;;22.61;49.49;99822.75;5060847;28;45239;-43
2022/10/24 01:02:20;;;;;;;;;0.25;0.25;;;;;22.60;49.42;99829.88;5043454;28;48413;-44
2022/10/24 01:04:47;;;;;;;;;1.75;1.75;;;;;22.60;49.77;99845.81;5052624;28;45318;-45
2022/10/24 01:07:30;;;;;;;;;1.00;1.00;;;;;22.57;49.65;99838.84;5060452;28;45285;-45
2022/10/24 01:10:08;;;;;;;;;1.50;1.50;;;;;22.57;49.63;99830.88;5067174;28;45528;-45
2022/10/24 01:13:00;;;;;;;;;1.00;1.00;;;;;22.56;49.50;99842.44;5069972;28;45476;-45
2022/10/24 01:15:39;;;;;;;;;0.00;0.00;;;;;22.56;49.96;99855.75;5047457;28;46028;-43
2022/10/24 01:18:12;;;;;;;;;1.00;1.00;;;;;22.57;49.55;99868.09;5061292;28;45279;-45
2022/10/24 01:21:11;;;;;;;;;2.00;0.75;;;;;22.57;50.00;99875.22;5060377;28;45318;-46
2022/10/24 01:23:45;;;;;;;;;1.50;1.50;;;;;22.56;50.16;99877.03;5060139;28;45287;-42
2022/10/24 01:26:26;;;;;;;;;1.25;1.25;;;;;22.55;50.27;99885.94;5061341;28;45261;-43
2022/10/24 01:29:09;;;;;;;;;1.25;1.25;;;;;22.55;49.64;99888.63;5050177;28;45276;-42
2022/10/24 01:32:01;;;;;;;;;1.00;0.50;;;;;22.54;49.63;99897.53;5061243;28;45268;-42
2022/10/24 01:34:31;;;;;;;;;0.00;0.00;;;;;22.54;49.99;99889.56;5073402;28;45378;-43
2022/10/24 01:37:03;;;;;;;;;2.75;1.00;;;;;22.54;50.51;99891.34;5081321;28;45399;-43
2022/10/24 01:39:34;;;;;;;;;2.00;1.00;;;;;22.57;50.10;99891.19;5063459;28;45336;-44
2022/10/24 01:42:00;;;;;;;;;0.75;0.75;;;;;22.57;50.05;99899.16;5080527;28;45327;-43
2022/10/24 01:44:31;;;;;;;;;1.75;1.75;;;;;22.56;49.73;99892.97;5079600;28;58508;-43
2022/10/24 01:46:58;;;;;;;;;1.25;0.75;;;;;22.57;50.04;99897.34;5063380;28;45331;-43
2022/10/24 01:49:27;;;;;;;;;2.00;2.00;;;;;22.57;49.88;99885.88;5046382;28;45530;-42
2022/10/24 01:51:53;;;;;;;;;1.00;1.00;;;;;22.58;50.31;99877.78;5080184;28;45438;-43
2022/10/24 01:54:19;;;;;;;;;0.00;0.00;;;;;22.56;50.04;99882.34;5063123;28;46284;-46
2022/10/24 01:56:44;;;;;;;;;1.00;1.00;;;;;22.55;50.25;99875.31;5063340;28;45310;-45
2022/10/24 01:59:27;;;;;;;;;1.25;0.75;;;;;22.55;49.87;99872.66;5061580;28;45332;-43
2022/10/24 02:02:02;;;;;;;;;0.75;0.75;;;;;22.53;49.95;99879.88;5060790;28;45168;-44
2022/10/24 02:04:28;;;;;;;;;1.00;0.00;;;;;22.52;49.85;99879.94;5059526;28;45439;-43
2022/10/24 02:06:54;;;;;;;;;0.75;0.75;;;;;22.51;50.27;99886.22;5060653;28;45479;-44
2022/10/24 02:09:20;;;;;;;;;1.50;0.50;;;;;22.51;49.82;99878.25;5062540;28;45311;-44
2022/10/24 02:11:45;;;;;;;;;1.00;1.00;;;;;22.51;50.06;99892.41;5049585;28;45570;-44
2022/10/24 02:14:16;;;;;;;;;0.00;0.00;;;;;22.51;49.77;99880.91;5078874;28;74575;-45
2022/10/24 02:16:42;;;;;;;;;2.75;1.75;;;;;22.48;49.63;99871.25;5045760;28;45360;-42
2022/10/24 02:19:08;;;;;;;;;2.00;0.00;;;;;22.48;49.86;99865.09;5079669;28;45256;-44
2022/10/24 02:21:40;;;;;;;;;3.25;1.00;;;;;22.48;50.12;99865.94;5062415;28;52650;-44
2022/10/24 02:24:16;;;;;;;;;1.00;1.00;;;;;22.48;49.86;99857.09;5079739;28;45372;-47
2022/10/24 02:26:51;;;;;;;;;1.75;1.00;;;;;22.46;50.25;99857.19;5061302;28;45246;-42
2022/10/24 02:29:28;;;;;;;;;1.50;1.00;;;;;22.45;49.87;99849.31;5060588;28;45456;-43
2022/10/24 02:31:55;;;;;;;;;1.00;1.00;;;;;22.45;50.48;99849.31;5034828;28;45255;-43
2022/10/24 02:34:20;;;;;;;;;2.00;2.00;;;;;22.45;50.10;99847.50;5043639;28;46154;-46
2022/10/24 02:36:45;;;;;;;;;2.25;1.00;;;;;22.45;50.39;99847.50;5050161;28;70432;-45
2022/10/24 02:39:11;;;;;;;;;3.75;0.00;;;;;22.45;49.98;99847.50;5063441;28;58210;-43
2022/10/24 02:41:36;;;;;;;;;0.25;0.00;;;;;22.44;50.63;99832.50;5066905;28;72263;-43
2022/10/24 02:44:02;;;;;;;;;2.00;0.50;;;;;22.44;50.23;99836.97;5060676;28;45484;-44
2022/10/24 02:46:27;;;;;;;;;1.00;0.75;;;;;22.44;50.59;99832.50;5066827;28;45378;-44
2022/10/24 02:48:56;;;;;;;;;0.50;0.50;;;;;22.44;49.75;99835.16;5060283;28;45330;-44
2022/10/24 02:51:22;;;;;;;;;1.00;1.00;;;;;22.44;50.45;99829.84;5047971;28;45572;-43
2022/10/24 02:53:47;;;;;;;;;1.50;0.00;;;;;22.43;50.67;99833.44;5058141;28;65702;-44
2022/10/24 02:56:12;;;;;;;;;0.25;0.25;;;;;22.43;50.46;99817.50;5050701;28;45324;-42
2022/10/24 02:58:38;;;;;;;;;1.00;1.00;;;;;22.42;49.98;99817.56;5064310;28;70046;-42
2022/10/24 03:01:03;;;;;;;;;0.00;0.00;;;;;22.41;50.33;99814.03;5060161;28;45149;-44
2022/10/24 03:03:28;;;;;;;;;3.00;0.00;;;;;22.40;50.22;99830.06;5071387;28;70023;-47
2022/10/24 03:05:54;;;;;;;;;3.75;1.25;;;;;22.39;50.42;99823.91;5059734;28;54216;-46
2022/10/24 03:08:19;;;;;;;;;2.00;1.00;;;;;22.40;50.40;99835.38;5059278;28;58545;-45
2022/10/24 03:10:44;;;;;;;;;3.00;1.25;;;;;22.39;50.05;99825.69;5064848;28;70468;-48
2022/10/24 03:13:10;;;;;;;;;1.75;1.25;;;;;22.38;50.37;99827.50;5058683;28;76002;-46
2022/10/24 03:15:35;;;;;;;;;1.50;0.25;;;;;22.37;49.93;99828.44;5060023;28;45318;-45
2022/10/24 03:18:01;;;;;;;;;2.00;2.00;;;;;22.37;50.51;99836.41;5058729;28;63474;-45
2022/10/24 03:20:26;;;;;;;;;3.25;2.00;;;;;22.37;50.39;99847.06;5058765;28;72476;-44
2022/10/24 03:22:51;;;;;;;;;3.25;1.00;;;;;22.38;50.10;99855.88;5058346;28;48419;-44
2022/10/24 03:25:17;;;;;;;;;2.50;1.25;;;;;22.38;50.21;99859.41;5045218;28;67311;-43
2022/10/24 03:27:42;;;;;;;;;1.25;1.00;;;;;22.38;50.15;99853.22;5058844;28;65936;-46
2022/10/24 03:30:08;;;;;;;;;3.25;1.50;;;;;22.37;50.18;99854.19;5065760;28;45465;-43
2022/10/24 03:32:33;;;;;;;;;1.25;1.00;;;;;22.35;50.16;99851.59;5065362;28;47630;-45
2022/10/24 03:34:59;;;;;;;;;1.00;1.00;;;;;22.35;50.19;99848.09;5059686;28;45441;-44
2022/10/24 03:37:25;;;;;;;;;0.00;0.00;;;;;22.34;50.55;99857.88;5069125;28;45291;-45
2022/10/24 03:39:51;;;;;;;;;1.75;1.00;;;;;22.34;50.54;99862.31;5065530;28;48350;-44
2022/10/24 03:42:16;;;;;;;;;3.25;1.00;;;;;22.35;50.38;99870.22;5064801;28;45213;-44
2022/10/24 03:44:41;;;;;;;;;1.50;0.00;;;;;22.36;50.39;99871.94;5065158;28;55956;-45
2022/10/24 03:47:07;;;;;;;;;1.00;1.00;;;;;22.36;50.23;99877.25;5065486;28;54840;-47
2022/10/24 03:49:32;;;;;;;;;1.50;1.00;;;;;22.35;50.25;99878.19;5059422;28;45473;-44
2022/10/24 03:51:58;;;;;;;;;2.25;1.75;;;;;22.35;50.07;99878.19;5058751;28;63284;-43
2022/10/24 03:54:23;;;;;;;;;0.75;0.75;;;;;22.35;50.17;99877.34;5058190;28;45217;-43
2022/10/24 03:56:49;;;;;;;;;1.50;0.25;;;;;22.34;50.08;99878.28;5061079;28;64903;-44
2022/10/24 03:59:14;;;;;;;;;2.00;1.00;;;;;22.32;50.34;99888.97;5081696;28;45158;-43
2022/10/24 04:01:39;;;;;;;;;2.50;1.75;;;;;22.32;50.60;99888.97;5081760;28;74416;-44
2022/10/24 04:04:05;;;;;;;;;2.25;0.50;;;;;22.32;50.28;99888.09;5082988;28;45324;-43
2022/10/24 04:06:30;;;;;;;;;2.00;0.75;;;;;22.33;50.28;99900.47;5082478;28;56622;-45
2022/10/24 04:08:56;;;;;;;;;3.00;0.00;;;;;22.32;50.73;99896.09;5082404;28;62426;-43
2022/10/24 04:11:22;;;;;;;;;2.50;2.50;;;;;22.31;50.37;99902.34;5069117;28;45322;-44
2022/10/24 04:13:47;;;;;;;;;1.00;0.00;;;;;22.28;50.58;99901.56;5082881;28;45316;-47
2022/10/24 04:16:13;;;;;;;;;1.00;1.00;;;;;22.28;50.31;99901.56;5081127;28;48840;-46
2022/10/24 04:18:38;;;;;;;;;1.25;0.00;;;;;22.28;50.78;99906.88;5081461;28;45324;-46
2022/10/24 04:21:03;;;;;;;;;3.00;0.25;;;;;22.27;50.38;99912.28;5082225;28;58816;-45
2022/10/24 04:23:33;;;;;;;;;2.00;1.00;;;;;22.26;50.94;99910.56;5082870;28;45321;-43
2022/10/24 04:25:58;;;;;;;;;2.25;2.00;;;;;22.25;50.75;99914.19;5080198;28;45374;-44
2022/10/24 04:28:24;;;;;;;;;2.50;1.00;;;;;22.24;50.40;99896.47;5081228;28;46051;-42
2022/10/24 04:30:54;;;;;;;;;2.00;1.00;;;;;22.26;50.87;99924.72;5081586;28;71679;-43
2022/10/24 04:33:19;;;;;;;;;0.75;0.75;;;;;22.24;50.92;99920.41;5062399;28;45429;-42
2022/10/24 04:35:48;;;;;;;;;1.50;1.50;;;;;22.25;51.03;99927.47;5061340;28;62103;-42
2022/10/24 04:38:14;;;;;;;;;1.25;1.00;;;;;22.25;50.54;99938.09;5035267;28;45723;-43
2022/10/24 04:40:39;;;;;;;;;1.25;1.00;;;;;22.25;50.43;99938.09;5062022;28;46070;-43
2022/10/24 04:43:04;;;;;;;;;2.00;1.00;;;;;22.24;50.47;99947.00;5080260;28;71304;-43
2022/10/24 04:45:30;;;;;;;;;3.75;1.75;;;;;22.22;50.99;99955.03;5080152;28;67824;-43
2022/10/24 04:47:55;;;;;;;;;4.00;2.25;;;;;22.24;51.11;99957.63;5081354;28;65299;-43
2022/10/24 04:50:20;;;;;;;;;1.25;1.25;;;;;22.24;50.98;99958.50;5080469;28;64460;-43
2022/10/24 04:52:46;;;;;;;;;1.00;1.00;;;;;22.25;51.03;99956.72;5082191;28;49739;-44
2022/10/24 04:55:11;;;;;;;;;1.50;1.50;;;;;22.25;50.65;99959.38;5081669;28;60010;-43
2022/10/24 04:57:37;;;;;;;;;1.00;0.00;;;;;22.24;51.10;99954.97;5066066;28;60383;-43
2022/10/24 05:00:03;;;;;;;;;1.00;1.00;;;;;22.22;50.79;99949.72;5064278;28;56325;-43
2022/10/24 05:02:28;;;;;;;;;3.25;3.00;;;;;22.22;50.51;99963.03;5073242;28;45265;-43
2022/10/24 05:04:54;;;;;;;;;1.00;0.75;;;;;22.21;50.98;99963.09;5069830;28;61999;-43
2022/10/24 05:07:20;;;;;;;;;1.00;1.00;;;;;22.21;50.49;99979.06;5081090;28;62591;-44
2022/10/24 05:09:46;;;;;;;;;1.00;1.00;;;;;22.21;50.56;99973.75;5079908;28;47042;-42
2022/10/24 05:12:12;;;;;;;;;1.00;1.00;;;;;22.21;50.62;99984.38;5035178;28;45203;-42
2022/10/24 05:14:37;;;;;;;;;3.75;0.25;;;;;22.21;50.62;99982.56;5067219;28;45295;-42
2022/10/24 05:17:03;;;;;;;;;0.50;0.50;;;;;22.22;50.86;99994.06;5069156;28;45470;-45
2022/10/24 05:19:28;;;;;;;;;2.00;1.00;;;;;22.21;50.64;99995.84;5064923;28;62071;-43
2022/10/24 05:21:53;;;;;;;;;3.00;1.00;;;;;22.21;51.18;99997.66;5080789;28;62294;-45
2022/10/24 05:24:19;;;;;;;;;1.00;1.00;;;;;22.21;50.80;100000.31;5081819;28;45211;-44
2022/10/24 05:26:44;;;;;;;;;4.25;1.25;;;;;22.20;51.01;100009.22;5070766;28;71321;-46
2022/10/24 05:29:09;;;;;;;;;1.25;1.00;;;;;22.20;51.00;99999.47;5061034;28;45272;-43
2022/10/24 05:31:35;;;;;;;;;2.00;1.00;;;;;22.20;51.02;100007.44;5068822;28;45320;-42
2022/10/24 05:34:00;;;;;;;;;3.50;1.00;;;;;22.20;51.31;100007.44;5064134;28;45340;-44
2022/10/24 05:36:26;;;;;;;;;0.25;0.00;;;;;22.23;51.33;100017.91;5064664;28;45327;-44
2022/10/24 05:38:51;;;;;;;;;3.25;1.50;;;;;22.23;50.70;100011.72;5048508;28;75527;-45
2022/10/24 05:41:16;;;;;;;;;2.00;1.00;;;;;22.24;51.45;100021.41;5060449;28;64391;-44
2022/10/24 05:43:42;;;;;;;;;3.00;1.25;;;;;22.24;50.97;100017.00;5059382;28;59309;-44
2022/10/24 05:46:08;;;;;;;;;3.00;2.25;;;;;22.25;51.50;100017.84;5058781;28;71923;-43
2022/10/24 05:48:34;;;;;;;;;1.00;1.00;;;;;22.26;50.84;100019.56;5060718;28;46213;-43
2022/10/24 05:51:00;;;;;;;;;3.00;2.25;;;;;22.27;51.38;100026.59;5070885;28;50061;-46
2022/10/24 05:53:25;;;;;;;;;3.00;2.25;;;;;22.27;51.36;100022.13;5063982;27;52205;-42
2022/10/24 05:55:51;;;;;;;;;1.00;1.00;;;;;22.26;51.25;100019.56;5059731;28;45613;-44
2022/10/24 05:58:21;;;;;;;;;2.00;2.00;;;;;22.25;50.92;100015.19;5059214;28;61919;-42
2022/10/24 06:00:47;;;;;;;;;2.50;1.75;;;;;22.25;51.40;100018.72;5071630;28;45504;-42
2022/10/24 06:03:12;;;;;;;;;2.00;2.00;;;;;22.25;51.36;100024.03;5081249;28;45431;-43
2022/10/24 06:05:38;;;;;;;;;5.00;1.00;;;;;22.24;51.30;100032.03;5078648;28;73052;-42
2022/10/24 06:08:03;;;;;;;;;3.25;1.00;;;;;22.20;51.10;100020.72;5067239;28;51046;-43
2022/10/24 06:10:28;;;;;;;;;0.75;0.75;;;;;22.22;51.46;100031.28;5068821;28;64805;-45
2022/10/24 06:12:54;;;;;;;;;2.25;1.00;;;;;22.22;51.46;100023.28;5057753;28;71975;-42
2022/10/24 06:15:19;;;;;;;;;1.50;1.50;;;;;22.22;51.43;100024.16;5075153;27;68509;-44
2022/10/24 06:17:45;;;;;;;;;1.50;1.00;;;;;22.24;50.91;100030.28;5072111;28;47340;-43
2022/10/24 06:20:10;;;;;;;;;2.50;2.00;;;;;22.24;51.58;100027.63;5071438;28;45774;-47
2022/10/24 06:22:36;;;;;;;;;3.00;2.00;;;;;22.25;51.10;100031.13;5066582;27;45340;-45
2022/10/24 06:25:01;;;;;;;;;1.00;1.00;;;;;22.25;51.54;100029.34;5070555;28;45207;-46
2022/10/24 06:27:27;;;;;;;;;4.00;1.00;;;;;22.25;51.51;100028.47;5073630;28;45449;-46
2022/10/24 06:29:52;;;;;;;;;1.25;1.00;;;;;22.26;51.65;100035.50;5062426;28;45352;-45
2022/10/24 06:32:17;;;;;;;;;2.25;1.25;;;;;22.25;50.96;100026.69;5067592;28;68790;-43
2022/10/24 06:34:43;;;;;;;;;0.50;0.50;;;;;22.25;51.34;100039.13;5060709;27;69713;-45
2022/10/24 06:37:08;;;;;;;;;1.00;1.00;;;;;22.24;51.40;100050.66;5078956;28;48154;-44
2022/10/24 06:39:33;;;;;;;;;2.00;1.00;;;;;22.23;51.25;100060.44;5070412;28;73717;-43
2022/10/24 06:41:59;;;;;;;;;2.75;1.00;;;;;22.23;51.05;100054.25;5059485;28;60920;-45
2022/10/24 06:44:25;;;;;;;;;2.00;2.00;;;;;22.24;50.99;100063.94;5037573;28;45541;-45
2022/10/24 06:46:51;;;;;;;;;3.00;1.75;;;;;22.23;51.00;100065.75;5060614;28;58892;-47
2022/10/24 06:49:16;;;;;;;;;2.00;2.00;;;;;22.23;51.00;100062.22;5069717;28;70542;-43
2022/10/24 06:51:41;;;;;;;;;4.00;2.00;;;;;22.23;51.50;100071.06;5071493;28;58664;-44
2022/10/24 06:54:07;;;;;;;;;1.00;1.00;;;;;22.23;51.56;100079.03;5079141;28;45592;-43
2022/10/24 06:56:32;;;;;;;;;3.75;3.50;;;;;22.24;51.07;100075.47;5061571;28;45330;-45
2022/10/24 06:58:58;;;;;;;;;5.50;1.25;;;;;22.23;51.41;100062.22;5067144;28;45618;-44
2022/10/24 07:01:24;;;;;;;;;2.00;1.00;;;;;22.22;51.12;100064.03;5055794;28;60340;-43
2022/10/24 07:03:49;;;;;;;;;5.25;2.25;;;;;22.23;50.94;100065.75;5045580;28;45391;-45
2022/10/24 07:06:20;;;;;;;;;3.25;1.75;;;;;22.23;51.21;100076.38;5074208;28;55584;-45
2022/10/24 07:08:45;;;;;;;;;1.50;1.50;;;;;22.23;51.56;100075.53;5068690;27;45395;-48
2022/10/24 07:11:11;;;;;;;;;3.25;3.00;;;;;22.24;51.21;100078.13;5072404;28;45408;-44
2022/10/24 07:13:36;;;;;;;;;1.75;1.25;;;;;22.24;51.54;100082.56;5059848;28;45445;-44
2022/10/24 07:16:02;;;;;;;;;1.25;1.25;;;;;22.23;51.33;100094.13;5055657;28;45588;-44
2022/10/24 07:18:27;;;;;;;;;2.75;1.50;;;;;22.23;51.48;100088.81;5069496;28;45371;-45
2022/10/24 07:20:53;;;;;;;;;4.75;2.00;;;;;22.23;51.28;100089.66;5079975;28;56487;-45
2022/10/24 07:23:18;;;;;;;;;0.50;0.25;;;;;22.24;51.54;100104.72;5078959;28;68909;-44
2022/10/24 07:25:44;;;;;;;;;4.25;2.00;;;;;22.25;51.13;100109.09;5074011;28;46095;-42
2022/10/24 07:28:10;;;;;;;;;2.00;2.00;;;;;22.28;51.69;100113.38;5058327;28;45235;-43
2022/10/24 07:30:37;;;;;;;;;2.00;2.00;;;;;22.29;51.66;100112.44;5071195;28;45239;-41
2022/10/24 07:33:02;;;;;;;;;3.00;2.75;;;;;22.29;51.50;100120.41;5072048;28;45299;-45
2022/10/24 07:35:28;;;;;;;;;1.50;1.00;;;;;22.29;51.38;100121.28;5056114;28;46702;-43
2022/10/24 07:37:53;;;;;;;;;2.50;2.50;;;;;22.29;50.80;100123.94;5064817;28;63818;-43
2022/10/24 07:40:18;;;;;;;;;2.50;1.00;;;;;22.28;51.46;100113.38;5062500;28;63851;-42
2022/10/24 07:42:44;;;;;;;;;2.00;2.00;;;;;22.28;51.52;100130.19;5075306;27;45181;-42
2022/10/24 07:45:09;;;;;;;;;4.75;2.50;;;;;22.28;51.47;100124.88;5070561;28;50170;-43
2022/10/24 07:47:35;;;;;;;;;1.25;1.25;;;;;22.28;50.94;100140.81;5079088;28;45258;-43
2022/10/24 07:50:00;;;;;;;;;3.25;1.00;;;;;22.26;51.04;100142.72;5082966;28;45442;-44
2022/10/24 07:52:26;;;;;;;;;4.00;3.00;;;;;22.28;51.26;100145.28;5081005;28;55305;-44
2022/10/24 07:54:52;;;;;;;;;2.00;2.00;;;;;22.29;51.45;100149.66;5081220;28;48318;-46
2022/10/24 07:57:18;;;;;;;;;6.25;1.75;;;;;22.30;51.41;100156.69;5063850;28;45995;-43
2022/10/24 07:59:44;;;;;;;;;4.75;2.25;;;;;22.29;51.29;100152.31;5075008;28;45322;-45
2022/10/24 08:02:10;;;;;;;;;1.00;1.00;;;;;22.30;51.10;100156.69;5065563;28;45313;-45
2022/10/24 08:04:36;;;;;;;;;2.25;1.00;;;;;22.31;51.09;100161.06;5081326;28;47400;-43
2022/10/24 08:07:01;;;;;;;;;4.25;2.00;;;;;22.31;51.32;100155.75;5080631;28;65934;-44
2022/10/24 08:09:26;;;;;;;;;4.00;2.00;;;;;22.33;51.09;100166.31;5073181;28;48791;-44
2022/10/24 08:11:52;;;;;;;;;3.25;2.00;;;;;22.32;51.01;100170.78;5066693;28;45308;-43
2022/10/24 08:14:17;;;;;;;;;1.75;1.00;;;;;22.32;51.72;100188.53;5074024;27;46625;-45
2022/10/24 08:16:42;;;;;;;;;3.75;3.00;;;;;22.32;50.99;100167.25;5065316;27;45276;-46
2022/10/24 08:19:10;;;;;;;;;2.75;2.00;;;;;22.31;51.60;100174.38;5070331;28;45565;-44
2022/10/24 08:21:35;;;;;;;;;1.00;1.00;;;;;22.31;51.47;100171.72;5056983;28;45283;-45
2022/10/24 08:24:01;;;;;;;;;1.75;1.75;;;;;22.31;51.05;100165.53;5072627;28;46120;-45
2022/10/24 08:26:26;;;;;;;;;5.25;2.25;;;;;22.31;51.16;100185.00;5063371;28;60393;-45
2022/10/24 08:28:52;;;;;;;;;2.25;1.50;;;;;22.31;50.99;100186.81;5068162;28;45379;-44
2022/10/24 08:31:19;;;;;;;;;4.00;2.00;;;;;22.32;51.05;100188.53;5065288;27;45309;-44
2022/10/24 08:33:44;;;;;;;;;3.00;1.75;;;;;22.32;51.68;100188.53;5071246;28;45380;-44
2022/10/24 08:36:39;;;;;;;;;3.75;2.75;;;;;22.25;50.97;100183.53;5082334;28;45401;-43
2022/10/24 08:39:04;;;;;;;;;1.75;1.75;;;;;22.19;50.71;100185.59;5068862;28;45466;-46
2022/10/24 08:41:54;;;;;;;;;2.50;1.75;;;;;22.12;51.30;100189.47;5081180;28;51326;-45
2022/10/24 08:44:34;;;;;;;;;2.50;1.25;;;;;22.06;51.47;100182.63;5064044;27;46069;-44
2022/10/24 08:47:02;;;;;;;;;3.00;1.00;;;;;21.98;50.73;100190.97;5052832;28;45845;-41
2022/10/24 08:49:28;;;;;;;;;1.00;1.00;;;;;21.91;51.28;100200.16;5061649;28;45235;-45
2022/10/24 08:52:01;;;;;;;;;2.00;2.00;;;;;21.85;51.28;100200.44;5071381;28;45247;-45
2022/10/24 08:54:29;;;;;;;;;3.25;2.25;;;;;21.80;51.22;100193.59;5047184;28;46945;-44
2022/10/24 08:56:58;;;;;;;;;5.00;2.50;;;;;21.76;51.31;100197.34;5054914;28;45279;-45
2022/10/24 08:59:25;;;;;;;;;3.00;2.25;;;;;21.72;51.49;100188.66;5082156;28;45491;-43
2022/10/24 09:01:59;;;;;;;;;5.00;3.00;;;;;21.71;51.70;100205.50;5079640;28;45515;-45
2022/10/24 09:04:27;;;;;;;;;2.25;0.75;;;;;21.70;51.80;100193.16;5061688;28;45314;-42
2022/10/24 09:06:52;;;;;;;;;2.75;2.75;;;;;21.68;51.53;100182.59;5074686;28;45391;-43
2022/10/24 09:09:38;;;;;;;;;2.00;2.00;;;;;21.65;51.92;100190.72;5063071;28;45207;-43
2022/10/24 09:12:12;;;;;;;;;4.00;2.25;;;;;21.64;51.70;100204.94;5062025;28;45341;-44
2022/10/24 09:14:39;;;;;;;;;1.50;1.25;;;;;21.63;52.30;100189.94;5055351;28;46195;-43
2022/10/24 09:17:18;;;;;;;;;4.75;1.00;;;;;21.64;51.91;100206.72;5072726;28;45507;-43
2022/10/24 09:20:00;;;;;;;;;1.50;1.50;;;;;21.64;52.09;100196.09;5073605;28;45341;-46
2022/10/24 09:22:28;;;;;;;;;1.00;1.00;;;;;21.64;51.67;100214.69;5054424;28;45465;-43
2022/10/24 09:24:55;;;;;;;;;3.50;1.25;;;;;21.64;51.77;100217.34;5041092;28;48411;-43
2022/10/24 09:27:23;;;;;;;;;2.25;1.00;;;;;21.65;51.79;100221.72;5060260;28;45284;-43
2022/10/24 09:29:49;;;;;;;;;1.00;1.00;;;;;21.67;52.26;100211.88;5043621;28;45321;-44
2022/10/24 09:32:16;;;;;;;;;2.75;2.00;;;;;21.66;51.97;100208.38;5043467;28;67860;-44
2022/10/24 09:34:43;;;;;;;;;3.50;2.25;;;;;21.67;51.64;100220.72;5061563;28;46314;-42
2022/10/24 09:37:28;;;;;;;;;2.75;1.75;;;;;21.68;51.55;100210.94;5067859;28;45349;-45
2022/10/24 09:40:27;;;;;;;;;1.00;1.00;;;;;21.68;51.88;100221.56;5069762;28;45294;-43
2022/10/24 09:43:12;;;;;;;;;3.00;1.00;;;;;21.69;52.24;100228.63;5051739;28;45283;-43
2022/10/24 09:45:42;;;;;;;;;2.00;2.00;;;;;21.68;52.10;100235.72;5073287;28;45395;-41
2022/10/24 09:48:31;;;;;;;;;7.00;2.75;;;;;21.67;51.88;100233.13;5074215;28;45332;-44
2022/10/24 09:50:57;;;;;;;;;2.25;2.25;;;;;21.64;51.93;100243.91;5061374;28;45274;-41
2022/10/24 09:53:30;;;;;;;;;2.50;2.00;;;;;21.63;52.30;100237.72;5072772;28;45177;-45
2022/10/24 09:56:00;;;;;;;;;1.75;1.75;;;;;21.64;52.45;100244.78;5061316;28;52040;-42
2022/10/24 09:58:31;;;;;;;;;3.00;1.25;;;;;21.70;52.21;100248.91;5063541;28;45428;-45
2022/10/24 10:01:01;;;;;;;;;3.50;0.25;;;;;21.76;52.77;100248.66;5072703;28;45331;-44
2022/10/24 10:03:27;;;;;;;;;2.50;1.75;;;;;21.84;52.39;100249.19;5060000;28;45485;-42
2022/10/24 10:05:53;;;;;;;;;3.75;2.50;;;;;21.90;52.18;100250.72;5067388;28;45526;-43
2022/10/24 10:08:30;;;;;;;;;2.25;2.25;;;;;21.93;52.23;100251.41;5068317;27;45665;-44
2022/10/24 10:10:56;;;;;;;;;3.25;2.25;;;;;21.98;52.42;100265.38;5050297;28;45395;-44
2022/10/24 10:13:24;;;;;;;;;2.50;2.50;;;;;22.01;52.44;100259.91;5064834;27;45360;-44
2022/10/24 10:16:00;;;;;;;;;2.75;2.00;;;;;22.04;52.45;100253.56;5064373;28;46098;-46
2022/10/24 10:18:37;;;;;;;;;4.50;3.00;;;;;22.06;51.92;100265.00;5041935;28;45489;-43
2022/10/24 10:21:05;;;;;;;;;4.50;2.00;;;;;22.08;52.11;100270.31;5070747;28;45332;-43
2022/10/24 10:23:32;;;;;;;;;3.25;1.75;;;;;22.08;52.05;100263.19;5060896;27;45197;-45
2022/10/24 10:26:01;;;;;;;;;3.00;1.00;;;;;22.11;52.46;100262.19;5062089;28;45889;-45
2022/10/24 10:28:26;;;;;;;;;3.25;3.00;;;;;22.14;52.00;100256.72;5060566;27;45386;-43
2022/10/24 10:30:54;;;;;;;;;1.00;1.00;;;;;22.15;51.93;100261.97;5071298;28;65927;-44
2022/10/24 10:33:28;;;;;;;;;4.00;1.00;;;;;22.17;52.38;100256.59;5058760;28;45526;-42
2022/10/24 10:36:11;;;;;;;;;3.75;1.50;;;;;22.19;52.43;100260.88;5058930;28;46037;-42
2022/10/24 10:39:37;;;;;;;;;2.75;2.75;;;;;22.22;52.13;100260.72;5064877;28;45340;-44
2022/10/24 10:42:44;;;;;;;;;3.75;2.00;;;;;22.23;52.46;100259.78;4951768;28;45415;-43
2022/10/24 10:45:31;;;;;;;;;1.50;1.00;;;;;22.28;52.73;100262.25;4890816;29;45611;-44
2022/10/24 10:48:21;;;;;;;;;3.00;3.00;;;;;22.30;52.81;100281.66;4951703;28;46371;-43
2022/10/24 10:51:13;;;;;;;;;3.25;2.00;;;;;22.33;52.48;100272.66;5045413;28;45345;-42
2022/10/24 10:53:56;;;;;;;;;2.75;2.75;;;;;22.35;52.79;100261.03;5065694;28;45174;-42
2022/10/24 10:56:38;;;;;;;;;5.00;3.75;;;;;22.36;52.37;100273.41;5060016;28;48523;-43
2022/10/24 10:59:34;;;;;;;;;6.00;4.00;;;;;22.39;53.19;100262.59;5061840;28;45406;-44
2022/10/24 11:02:14;;;;;;;;;3.00;2.50;;;;;22.41;53.14;100273.16;5058234;28;45326;-43
2022/10/24 11:04:56;;;;;;;;;2.75;2.00;;;;;22.42;52.80;100270.47;5062035;28;45450;-44
2022/10/24 11:07:33;;;;;;;;;2.50;2.50;;;;;22.43;52.73;100282.81;5059959;28;45234;-42
2022/10/24 11:10:09;;;;;;;;;5.50;5.00;;;;;22.43;52.95;100273.97;5069969;28;46570;-42
2022/10/24 11:12:37;;;;;;;;;1.25;1.25;;;;;22.43;53.02;100272.19;5071823;28;47722;-44
2022/10/24 11:15:24;;;;;;;;;3.00;2.50;;;;;22.43;52.90;100277.50;5062669;28;45362;-42
2022/10/24 11:17:57;;;;;;;;;3.25;1.25;;;;;22.43;53.10;100269.53;5068950;28;45534;-42
2022/10/24 11:20:58;;;;;;;;;2.00;2.00;;;;;22.41;52.91;100282.00;5068957;28;45318;-42
2022/10/24 11:23:35;;;;;;;;;4.00;1.75;;;;;22.39;53.05;100270.59;5062793;28;45198;-44
2022/10/24 11:26:04;;;;;;;;;4.00;3.00;;;;;22.43;52.91;100264.19;5063858;28;45380;-44
2022/10/24 11:28:40;;;;;;;;;3.75;2.25;;;;;22.46;52.84;100276.47;5069697;28;45455;-47
2022/10/24 11:31:34;;;;;;;;;3.00;3.00;;;;;22.47;52.56;100273.75;5063018;28;46162;-43
2022/10/24 11:34:09;;;;;;;;;5.25;3.00;;;;;22.47;52.93;100289.69;5070828;28;45512;-45
2022/10/24 11:36:46;;;;;;;;;5.75;3.75;;;;;22.47;52.43;100273.75;5083607;28;45343;-43
2022/10/24 11:39:17;;;;;;;;;2.00;2.00;;;;;22.47;52.55;100272.88;5072488;27;45357;-45